createdAt,value
2018-09-13T00:01:25.790Z,12.90
2018-09-13T00:03:27.934Z,13.00
2018-09-13T00:05:30.153Z,13.00
2018-09-13T00:07:39.271Z,12.90
2018-09-13T00:09:41.448Z,12.90
2018-09-13T00:11:44.094Z,13.00
2018-09-13T00:13:46.475Z,12.90
2018-09-13T00:15:48.842Z,13.00
2018-09-13T00:17:51.191Z,13.00
2018-09-13T00:19:53.387Z,13.00
2018-09-13T00:21:55.606Z,13.00
2018-09-13T00:23:58.028Z,13.00
2018-09-13T00:26:00.168Z,13.00
2018-09-13T00:28:02.373Z,12.90
2018-09-13T00:30:04.609Z,12.90
2018-09-13T00:32:06.802Z,12.90
2018-09-13T00:34:08.943Z,12.90
2018-09-13T00:36:11.085Z,12.80
2018-09-13T00:38:13.209Z,12.80
2018-09-13T00:40:15.380Z,12.80
2018-09-13T00:42:17.544Z,12.70
2018-09-13T00:44:19.794Z,12.70
2018-09-13T00:46:21.963Z,12.70
2018-09-13T00:48:24.102Z,12.70
2018-09-13T00:50:26.258Z,12.80
2018-09-13T00:52:28.512Z,12.90
2018-09-13T00:54:30.619Z,13.00
2018-09-13T01:15:58.342Z,13.20
2018-09-13T01:18:00.698Z,13.40
2018-09-13T01:20:02.906Z,13.50
2018-09-13T01:22:05.261Z,13.50
2018-09-13T01:24:07.727Z,13.20
2018-09-13T01:26:09.898Z,12.90
2018-09-13T01:28:12.051Z,12.90
2018-09-13T01:30:14.450Z,13.20
2018-09-13T01:32:16.590Z,13.40
2018-09-13T01:34:18.727Z,13.50
2018-09-13T01:36:20.890Z,13.60
2018-09-13T01:38:23.087Z,13.60
2018-09-13T01:40:25.232Z,13.60
2018-09-13T01:42:27.892Z,13.60
2018-09-13T01:44:30.035Z,13.60
2018-09-13T01:46:32.144Z,13.60
2018-09-13T01:48:34.700Z,13.60
2018-09-13T01:50:36.862Z,13.60
2018-09-13T01:52:39.006Z,13.60
2018-09-13T01:54:41.142Z,13.60
2018-09-13T01:56:43.265Z,13.60
2018-09-13T01:58:45.443Z,13.60
2018-09-13T02:00:47.675Z,13.60
2018-09-13T02:02:49.861Z,13.50
2018-09-13T02:04:52.003Z,13.60
2018-09-13T02:06:54.154Z,13.60
2018-09-13T02:08:56.321Z,13.60
2018-09-13T02:10:58.484Z,13.60
2018-09-13T02:13:00.671Z,13.60
2018-09-13T02:15:02.846Z,13.50
2018-09-13T02:17:05.024Z,13.60
2018-09-13T02:19:07.195Z,13.50
2018-09-13T02:21:09.391Z,13.60
2018-09-13T02:23:11.597Z,13.50
2018-09-13T02:25:13.731Z,13.60
2018-09-13T02:27:15.902Z,13.60
2018-09-13T02:29:18.062Z,13.60
2018-09-13T02:31:20.303Z,13.70
2018-09-13T02:33:22.620Z,13.70
2018-09-13T02:35:24.780Z,13.60
2018-09-13T02:37:26.920Z,13.60
2018-09-13T02:39:29.099Z,13.60
2018-09-13T02:41:31.233Z,13.70
2018-09-13T02:45:59.117Z,13.80
2018-09-13T02:48:01.283Z,13.80
2018-09-13T02:50:03.501Z,13.80
2018-09-13T02:52:05.922Z,13.70
2018-09-13T02:54:08.050Z,13.70
2018-09-13T02:56:10.200Z,13.80
2018-09-13T02:58:12.359Z,13.70
2018-09-13T03:00:14.515Z,13.70
2018-09-13T03:02:16.656Z,13.70
2018-09-13T03:04:19.095Z,13.70
2018-09-13T03:06:21.251Z,13.70
2018-09-13T03:08:23.421Z,13.70
2018-09-13T03:10:25.586Z,13.60
2018-09-13T03:12:27.781Z,13.60
2018-09-13T03:14:29.972Z,13.50
2018-09-13T03:16:32.111Z,13.50
2018-09-13T03:18:34.286Z,13.50
2018-09-13T03:20:36.510Z,13.50
2018-09-13T03:22:38.844Z,13.50
2018-09-13T03:24:41.023Z,13.40
2018-09-13T03:26:43.199Z,13.40
2018-09-13T03:28:45.421Z,13.20
2018-09-13T03:30:47.601Z,13.00
2018-09-13T03:32:49.891Z,12.90
2018-09-13T03:34:52.290Z,12.90
2018-09-13T03:36:54.406Z,13.00
2018-09-13T03:38:56.541Z,13.00
2018-09-13T03:40:58.706Z,13.10
2018-09-13T03:43:00.842Z,13.10
2018-09-13T03:45:03.046Z,13.00
2018-09-13T03:47:05.581Z,12.70
2018-09-13T03:49:07.848Z,12.70
2018-09-13T03:51:10.048Z,12.80
2018-09-13T03:53:12.168Z,12.90
2018-09-13T03:55:14.347Z,13.10
2018-09-13T03:57:16.511Z,13.20
2018-09-13T03:59:18.679Z,13.40
2018-09-13T04:01:20.890Z,13.30
2018-09-13T04:03:23.259Z,13.40
2018-09-13T04:05:25.339Z,13.50
2018-09-13T04:07:27.535Z,13.50
2018-09-13T04:09:29.690Z,13.40
2018-09-13T04:11:31.858Z,13.30
2018-09-13T04:13:34.513Z,13.40
2018-09-13T04:15:36.664Z,13.50
2018-09-13T04:17:38.854Z,13.50
2018-09-13T04:19:42.791Z,13.40
2018-09-13T04:21:44.957Z,13.40
2018-09-13T04:23:47.094Z,13.20
2018-09-13T04:25:49.269Z,13.20
2018-09-13T04:27:51.385Z,13.10
2018-09-13T04:29:53.638Z,13.10
2018-09-13T04:31:56.214Z,13.00
2018-09-13T04:33:58.378Z,12.90
2018-09-13T04:36:00.552Z,12.90
2018-09-13T04:38:02.731Z,12.90
2018-09-13T04:40:04.917Z,12.90
2018-09-13T04:42:07.126Z,13.10
2018-09-13T04:44:09.714Z,13.10
2018-09-13T04:46:11.867Z,13.00
2018-09-13T04:48:14.162Z,13.10
2018-09-13T04:50:16.551Z,13.20
2018-09-13T04:52:18.731Z,13.30
2018-09-13T04:54:21.433Z,13.30
2018-09-13T04:56:24.021Z,13.30
2018-09-13T04:58:26.222Z,13.30
2018-09-13T05:00:28.375Z,13.30
2018-09-13T05:02:30.579Z,13.20
2018-09-13T05:04:32.766Z,13.20
2018-09-13T05:06:35.060Z,13.20
2018-09-13T05:08:37.303Z,13.20
2018-09-13T05:10:39.450Z,13.20
2018-09-13T05:12:41.612Z,13.20
2018-09-13T05:14:43.760Z,13.20
2018-09-13T05:16:45.921Z,13.20
2018-09-13T05:18:54.931Z,13.40
2018-09-13T05:20:57.067Z,13.40
2018-09-13T05:22:59.278Z,13.30
2018-09-13T05:25:01.454Z,13.30
2018-09-13T05:27:03.637Z,13.40
2018-09-13T05:29:05.980Z,13.40
2018-09-13T05:31:08.216Z,13.20
2018-09-13T05:33:10.442Z,13.20
2018-09-13T05:35:12.790Z,13.30
2018-09-13T05:37:21.676Z,13.50
2018-09-13T05:39:23.865Z,13.50
2018-09-13T05:41:26.027Z,13.50
2018-09-13T05:43:28.218Z,13.50
2018-09-13T05:45:30.410Z,13.60
2018-09-13T05:47:32.796Z,13.60
2018-09-13T05:49:34.972Z,13.70
2018-09-13T05:51:37.097Z,13.80
2018-09-13T05:53:39.246Z,13.80
2018-09-13T05:55:41.386Z,13.80
2018-09-13T05:57:43.533Z,13.90
2018-09-13T05:59:45.936Z,14.00
2018-09-13T06:01:48.081Z,14.10
2018-09-13T06:03:50.195Z,14.30
2018-09-13T06:05:52.367Z,14.40
2018-09-13T06:07:54.572Z,14.40
2018-09-13T06:09:56.731Z,14.50
2018-09-13T06:12:04.524Z,14.60
2018-09-13T06:14:06.646Z,14.50
2018-09-13T06:16:08.774Z,14.60
2018-09-13T06:18:10.926Z,14.70
2018-09-13T06:20:13.079Z,14.70
2018-09-13T06:22:15.266Z,14.80
2018-09-13T06:24:17.382Z,14.90
2018-09-13T06:26:19.486Z,14.90
2018-09-13T06:28:21.630Z,15.00
2018-09-13T06:30:23.767Z,15.20
2018-09-13T06:32:25.884Z,15.30
2018-09-13T06:34:28.058Z,15.30
2018-09-13T06:36:30.315Z,15.40
2018-09-13T06:38:32.390Z,15.30
2018-09-13T06:40:34.519Z,15.30
2018-09-13T06:42:36.654Z,15.30
2018-09-13T06:44:38.787Z,15.40
2018-09-13T06:46:40.917Z,15.60
2018-09-13T06:48:43.631Z,15.70
2018-09-13T06:50:45.702Z,15.80
2018-09-13T06:52:47.947Z,15.80
2018-09-13T06:54:50.467Z,15.90
2018-09-13T06:56:52.667Z,16.20
2018-09-13T06:58:54.820Z,16.30
2018-09-13T07:00:57.253Z,16.30
2018-09-13T07:02:59.479Z,16.30
2018-09-13T07:05:01.614Z,16.60
2018-09-13T07:07:04.280Z,16.90
2018-09-13T07:09:08.871Z,16.90
2018-09-13T07:11:10.982Z,16.80
2018-09-13T07:13:13.212Z,16.80
2018-09-13T07:15:15.363Z,16.90
2018-09-13T07:17:17.524Z,17.00
2018-09-13T07:19:19.666Z,16.90
2018-09-13T07:21:21.833Z,17.10
2018-09-13T07:23:24.242Z,17.30
2018-09-13T07:25:26.428Z,17.40
2018-09-13T07:27:28.579Z,17.40
2018-09-13T07:29:30.702Z,17.00
2018-09-13T07:31:33.501Z,17.00
2018-09-13T07:33:35.661Z,17.20
2018-09-13T07:35:37.778Z,17.40
2018-09-13T07:37:39.990Z,17.50
2018-09-13T07:39:42.162Z,17.60
2018-09-13T07:41:44.267Z,17.50
2018-09-13T07:43:46.488Z,17.60
2018-09-13T07:45:48.617Z,17.50
2018-09-13T07:47:50.766Z,17.80
2018-09-13T07:49:53.130Z,17.60
2018-09-13T07:51:55.062Z,17.90
2018-09-13T07:53:57.475Z,18.40
2018-09-13T07:55:59.614Z,18.30
2018-09-13T07:58:01.828Z,18.30
2018-09-13T08:00:04.170Z,18.10
2018-09-13T08:02:06.319Z,18.10
2018-09-13T08:04:08.497Z,18.50
2018-09-13T08:06:10.662Z,18.60
2018-09-13T08:08:12.878Z,18.90
2018-09-13T08:10:15.109Z,19.20
2018-09-13T08:12:18.212Z,19.30
2018-09-13T08:14:20.317Z,19.00
2018-09-13T08:16:22.602Z,18.70
2018-09-13T08:18:24.730Z,18.90
2018-09-13T08:20:26.868Z,18.70
2018-09-13T08:22:29.004Z,19.10
2018-09-13T08:24:31.149Z,19.10
2018-09-13T08:26:33.299Z,19.30
2018-09-13T08:28:35.448Z,19.60
2018-09-13T08:30:37.907Z,19.90
2018-09-13T08:32:40.048Z,20.30
2018-09-13T08:34:42.258Z,20.30
2018-09-13T08:36:44.510Z,20.30
2018-09-13T08:38:46.643Z,20.50
2018-09-13T08:40:48.971Z,20.90
2018-09-13T08:42:51.140Z,21.00
2018-09-13T08:44:53.278Z,20.90
2018-09-13T08:46:55.410Z,21.00
2018-09-13T08:48:57.574Z,21.20
2018-09-13T08:50:59.703Z,21.40
2018-09-13T08:53:01.875Z,21.60
2018-09-13T08:55:04.175Z,21.90
2018-09-13T08:57:06.294Z,21.80
2018-09-13T08:59:08.500Z,21.50
2018-09-13T09:01:10.780Z,20.60
2018-09-13T09:03:12.960Z,20.50
2018-09-13T09:05:15.096Z,20.10
2018-09-13T09:07:17.226Z,19.80
2018-09-13T09:09:19.407Z,19.90
2018-09-13T09:11:21.536Z,20.00
2018-09-13T09:13:23.955Z,20.40
2018-09-13T09:15:26.151Z,20.40
2018-09-13T09:17:28.330Z,20.50
2018-09-13T09:19:30.479Z,20.50
2018-09-13T09:21:32.625Z,20.40
2018-09-13T09:23:34.774Z,20.30
2018-09-13T09:25:37.306Z,20.20
2018-09-13T09:27:46.336Z,19.90
2018-09-13T09:29:48.542Z,19.80
2018-09-13T09:31:50.634Z,19.80
2018-09-13T09:33:52.817Z,20.00
2018-09-13T09:35:55.954Z,20.20
2018-09-13T09:37:58.137Z,20.30
2018-09-13T09:40:00.276Z,20.30
2018-09-13T09:42:03.143Z,20.40
2018-09-13T09:44:05.443Z,20.10
2018-09-13T09:46:07.563Z,20.50
2018-09-13T09:48:09.804Z,21.10
2018-09-13T09:50:11.907Z,21.50
2018-09-13T09:52:14.051Z,20.30
2018-09-13T09:54:16.149Z,20.60
2018-09-13T09:56:18.469Z,20.70
2018-09-13T09:58:20.526Z,20.10
2018-09-13T10:00:27.263Z,20.40
2018-09-13T10:02:29.549Z,19.80
2018-09-13T10:04:31.780Z,20.30
2018-09-13T10:06:33.866Z,20.90
2018-09-13T10:08:36.037Z,20.60
2018-09-13T10:10:38.235Z,20.20
2018-09-13T10:12:40.352Z,20.60
2018-09-13T10:14:47.130Z,20.60
2018-09-13T10:17:01.695Z,21.00
2018-09-13T10:19:09.606Z,21.40
2018-09-13T10:21:17.495Z,22.00
2018-09-13T10:23:25.386Z,22.50
2018-09-13T10:25:33.158Z,22.90
2018-09-13T10:27:40.989Z,22.40
2018-09-13T10:29:49.069Z,21.80
2018-09-13T10:31:56.797Z,21.70
2018-09-13T10:34:04.718Z,21.90
2018-09-13T10:36:12.642Z,21.50
2018-09-13T10:38:20.418Z,22.10
2018-09-13T10:40:28.388Z,22.70
2018-09-13T10:42:36.385Z,23.40
2018-09-13T10:44:44.438Z,24.10
2018-09-13T10:46:51.470Z,24.20
2018-09-13T10:48:59.509Z,24.60
2018-09-13T10:51:07.571Z,25.30
2018-09-13T10:53:17.825Z,25.30
2018-09-13T10:55:20.036Z,25.00
2018-09-13T10:57:28.016Z,24.70
2018-09-13T10:59:30.168Z,25.30
2018-09-13T11:01:32.332Z,25.30
2018-09-13T11:03:34.466Z,25.10
2018-09-13T11:05:36.677Z,25.10
2018-09-13T11:07:38.823Z,25.40
2018-09-13T11:09:40.987Z,25.60
2018-09-13T11:11:43.380Z,25.80
2018-09-13T11:13:51.337Z,25.80
2018-09-13T11:15:54.097Z,26.70
2018-09-13T11:17:56.282Z,27.10
2018-09-13T11:19:58.426Z,27.10
2018-09-13T11:22:00.598Z,26.40
2018-09-13T11:24:02.765Z,25.60
2018-09-13T11:26:04.976Z,24.50
2018-09-13T11:28:07.134Z,24.70
2018-09-13T11:30:09.339Z,24.20
2018-09-13T11:32:12.102Z,23.60
2018-09-13T11:34:14.224Z,23.60
2018-09-13T11:36:16.861Z,24.20
2018-09-13T11:38:19.002Z,24.30
2018-09-13T11:40:21.274Z,23.90
2018-09-13T11:42:23.349Z,21.70
2018-09-13T11:44:25.520Z,20.80
2018-09-13T11:46:27.692Z,21.20
2018-09-13T11:48:30.345Z,21.20
2018-09-13T11:50:32.482Z,20.70
2018-09-13T11:52:34.631Z,20.60
2018-09-13T11:54:36.751Z,21.70
2018-09-13T11:56:38.919Z,22.70
2018-09-13T11:58:41.259Z,22.50
2018-09-13T12:00:43.570Z,22.90
2018-09-13T12:02:45.690Z,23.60
2018-09-13T12:04:47.845Z,24.40
2018-09-13T12:06:49.977Z,25.30
2018-09-13T12:08:52.138Z,25.00
2018-09-13T12:10:54.283Z,25.30
2018-09-13T12:12:56.534Z,25.60
2018-09-13T12:14:58.691Z,25.60
2018-09-13T12:17:01.258Z,25.00
2018-09-13T12:19:03.927Z,24.70
2018-09-13T12:21:06.115Z,24.50
2018-09-13T12:23:08.290Z,24.00
2018-09-13T12:25:10.439Z,23.70
2018-09-13T12:27:12.590Z,23.30
2018-09-13T12:29:14.739Z,23.30
2018-09-13T12:31:16.987Z,23.30
2018-09-13T12:33:19.162Z,24.60
2018-09-13T12:35:21.377Z,26.00
2018-09-13T12:37:23.543Z,26.90
2018-09-13T12:39:25.854Z,26.90
2018-09-13T12:41:28.024Z,27.70
2018-09-13T12:43:30.163Z,27.90
2018-09-13T12:45:32.294Z,28.20
2018-09-13T12:47:34.394Z,26.10
2018-09-13T12:49:36.546Z,27.40
2018-09-13T12:51:39.055Z,28.10
2018-09-13T12:53:41.223Z,28.90
2018-09-13T12:55:53.593Z,29.40
2018-09-13T12:57:55.764Z,29.40
2018-09-13T12:59:57.901Z,29.80
2018-09-13T13:02:00.107Z,29.90
2018-09-13T13:04:02.274Z,30.60
2018-09-13T13:06:04.494Z,30.20
2018-09-13T13:08:06.644Z,30.50
2018-09-13T13:10:08.863Z,31.50
2018-09-13T13:12:11.022Z,31.70
2018-09-13T13:14:13.158Z,30.70
2018-09-13T13:16:15.296Z,31.10
2018-09-13T13:18:17.418Z,30.30
2018-09-13T13:20:19.881Z,30.80
2018-09-13T13:22:22.006Z,30.70
2018-09-13T13:24:24.138Z,30.20
2018-09-13T13:26:26.310Z,29.20
2018-09-13T13:28:28.474Z,27.70
2018-09-13T13:30:30.616Z,27.50
2018-09-13T13:32:32.749Z,28.50
2018-09-13T13:34:34.958Z,28.80
2018-09-13T13:36:37.126Z,27.70
2018-09-13T13:38:40.382Z,26.40
2018-09-13T13:40:42.542Z,25.80
2018-09-13T13:42:44.682Z,26.30
2018-09-13T13:44:46.995Z,27.20
2018-09-13T13:46:49.246Z,26.00
2018-09-13T13:48:51.380Z,25.70
2018-09-13T13:50:53.973Z,25.00
2018-09-13T13:52:56.123Z,24.60
2018-09-13T13:55:04.953Z,24.30
2018-09-13T13:57:07.275Z,24.20
2018-09-13T13:59:09.422Z,24.00
2018-09-13T14:01:11.581Z,23.80
2018-09-13T14:03:13.799Z,24.50
2018-09-13T14:05:15.922Z,25.90
2018-09-13T14:07:18.271Z,25.80
2018-09-13T14:09:20.417Z,25.50
2018-09-13T14:11:22.540Z,25.20
2018-09-13T14:13:24.725Z,24.60
2018-09-13T14:15:26.884Z,24.10
2018-09-13T14:17:29.020Z,23.70
2018-09-13T14:19:31.166Z,23.60
2018-09-13T14:21:33.338Z,23.20
2018-09-13T14:23:35.511Z,23.50
2018-09-13T14:25:37.679Z,23.90
2018-09-13T14:27:39.989Z,25.70
2018-09-13T14:29:42.659Z,27.10
2018-09-13T14:31:44.827Z,27.80
2018-09-13T14:33:46.962Z,28.00
2018-09-13T14:35:49.220Z,28.10
2018-09-13T14:37:51.438Z,27.60
2018-09-13T14:39:53.599Z,27.00
2018-09-13T14:41:56.023Z,27.60
2018-09-13T14:43:58.155Z,27.20
2018-09-13T14:46:00.290Z,26.50
2018-09-13T14:48:02.426Z,26.00
2018-09-13T14:50:04.602Z,26.50
2018-09-13T14:52:06.842Z,25.40
2018-09-13T14:54:08.998Z,25.50
2018-09-13T14:56:11.180Z,26.80
2018-09-13T14:58:13.312Z,27.60
2018-09-13T15:00:15.520Z,28.10
2018-09-13T15:02:17.649Z,27.30
2018-09-13T15:04:19.782Z,25.90
2018-09-13T15:06:21.955Z,26.90
2018-09-13T15:08:24.083Z,26.90
2018-09-13T15:10:26.231Z,28.10
2018-09-13T15:12:28.439Z,29.10
2018-09-13T15:14:30.624Z,28.80
2018-09-13T15:16:32.775Z,28.90
2018-09-13T15:18:34.941Z,28.80
2018-09-13T15:20:37.110Z,27.40
2018-09-13T15:22:40.010Z,25.70
2018-09-13T15:24:42.220Z,26.00
2018-09-13T15:26:44.269Z,26.80
2018-09-13T15:28:46.458Z,27.50
2018-09-13T15:30:48.550Z,27.90
2018-09-13T15:32:50.690Z,27.20
2018-09-13T15:34:53.101Z,27.50
2018-09-13T15:36:55.239Z,27.00
2018-09-13T15:38:57.363Z,26.30
2018-09-13T15:40:59.511Z,25.70
2018-09-13T15:43:01.771Z,25.50
2018-09-13T15:45:03.954Z,25.20
2018-09-13T15:47:06.154Z,24.60
2018-09-13T15:49:08.427Z,24.50
2018-09-13T15:51:10.632Z,24.00
2018-09-13T15:53:12.809Z,23.60
2018-09-13T15:55:14.947Z,23.10
2018-09-13T15:57:17.045Z,22.90
2018-09-13T15:59:19.271Z,22.80
2018-09-13T16:01:21.390Z,22.70
2018-09-13T16:03:23.502Z,22.60
2018-09-13T16:05:25.656Z,22.50
2018-09-13T16:07:27.779Z,22.40
2018-09-13T16:09:29.887Z,22.30
2018-09-13T16:11:32.034Z,22.20
2018-09-13T16:13:34.202Z,21.90
2018-09-13T16:15:36.549Z,21.70
2018-09-13T16:17:39.482Z,21.70
2018-09-13T16:19:41.614Z,21.60
2018-09-13T16:21:43.806Z,21.50
2018-09-13T16:23:45.914Z,21.50
2018-09-13T16:25:48.015Z,21.40
2018-09-13T16:27:50.130Z,21.40
2018-09-13T16:29:52.222Z,21.30
2018-09-13T16:31:54.379Z,21.20
2018-09-13T16:33:56.864Z,21.10
2018-09-13T16:35:59.458Z,21.20
2018-09-13T16:38:07.362Z,21.00
2018-09-13T16:40:15.618Z,21.00
2018-09-13T16:42:23.477Z,20.90
2018-09-13T16:44:31.474Z,20.80
2018-09-13T16:46:39.332Z,20.70
2018-09-13T16:48:42.010Z,20.60
2018-09-13T16:50:44.132Z,20.70
2018-09-13T16:52:46.454Z,20.70
2018-09-13T16:54:48.598Z,20.60
2018-09-13T16:56:50.736Z,20.60
2018-09-13T16:58:53.109Z,20.50
2018-09-13T17:00:55.226Z,20.50
2018-09-13T17:02:57.373Z,20.40
2018-09-13T17:04:59.486Z,20.20
2018-09-13T17:07:01.705Z,20.20
2018-09-13T17:09:07.268Z,20.10
2018-09-13T17:11:09.406Z,20.10
2018-09-13T17:13:11.551Z,20.00
2018-09-13T17:15:13.714Z,19.90
2018-09-13T17:17:15.847Z,19.80
2018-09-13T17:19:18.102Z,19.80
2018-09-13T17:21:20.221Z,19.80
2018-09-13T17:23:22.407Z,19.60
2018-09-13T17:25:24.607Z,19.50
2018-09-13T17:27:26.742Z,19.60
2018-09-13T17:29:29.160Z,19.50
2018-09-13T17:31:31.274Z,19.50
2018-09-13T17:33:33.401Z,19.30
2018-09-13T17:35:35.488Z,19.20
2018-09-13T17:37:37.592Z,19.20
2018-09-13T17:39:39.758Z,19.10
2018-09-13T17:41:42.529Z,18.80
2018-09-13T17:43:44.626Z,18.70
2018-09-13T17:45:46.734Z,18.60
2018-09-13T17:47:48.982Z,18.60
2018-09-13T17:49:51.134Z,18.20
2018-09-13T17:51:53.566Z,18.10
2018-09-13T17:53:55.955Z,18.30
2018-09-13T17:55:58.070Z,18.40
2018-09-13T17:58:01.368Z,18.50
2018-09-13T18:00:03.750Z,18.40
2018-09-13T18:02:05.902Z,18.50
2018-09-13T18:04:08.070Z,18.50
2018-09-13T18:06:10.317Z,18.50
2018-09-13T18:08:12.431Z,18.30
2018-09-13T18:10:14.537Z,18.20
2018-09-13T18:12:16.675Z,18.20
2018-09-13T18:14:18.778Z,18.20
2018-09-13T18:16:20.892Z,18.10
2018-09-13T18:18:23.131Z,18.10
2018-09-13T18:20:25.258Z,18.10
2018-09-13T18:22:27.354Z,18.00
2018-09-13T18:24:30.457Z,18.00
2018-09-13T18:26:33.109Z,17.90
2018-09-13T18:28:35.246Z,17.80
2018-09-13T18:30:37.630Z,17.80
2018-09-13T18:32:39.794Z,17.50
2018-09-13T18:34:41.913Z,17.10
2018-09-13T18:36:44.038Z,16.90
2018-09-13T18:38:46.198Z,17.00
2018-09-13T18:40:48.298Z,16.90
2018-09-13T18:42:50.734Z,16.90
2018-09-13T18:44:52.846Z,16.90
2018-09-13T18:46:55.050Z,17.10
2018-09-13T18:48:57.519Z,17.10
2018-09-13T18:50:59.629Z,17.00
2018-09-13T18:53:01.830Z,17.00
2018-09-13T18:55:04.053Z,17.00
2018-09-13T18:57:06.177Z,17.20
2018-09-13T18:59:08.310Z,17.00
2018-09-13T19:01:10.698Z,17.10
2018-09-13T19:03:12.809Z,17.10
2018-09-13T19:05:15.192Z,17.10
2018-09-13T19:07:17.270Z,17.10
2018-09-13T19:09:19.397Z,17.00
2018-09-13T19:11:21.559Z,17.00
2018-09-13T19:13:23.674Z,16.90
2018-09-13T19:15:25.782Z,16.90
2018-09-13T19:17:27.949Z,16.90
2018-09-13T19:19:30.245Z,16.80
2018-09-13T19:21:32.392Z,16.80
2018-09-13T19:23:34.505Z,16.80
2018-09-13T19:25:36.679Z,16.70
2018-09-13T19:27:38.838Z,16.70
2018-09-13T19:29:40.994Z,16.60
2018-09-13T19:31:43.145Z,16.50
2018-09-13T19:33:45.762Z,16.50
2018-09-13T19:35:47.875Z,16.50
2018-09-13T19:37:50.014Z,16.50
2018-09-13T19:39:52.113Z,16.50
2018-09-13T19:41:54.434Z,16.50
2018-09-13T19:43:56.565Z,16.50
2018-09-13T19:45:58.706Z,16.50
2018-09-13T19:48:01.183Z,16.50
2018-09-13T19:50:03.420Z,16.40
2018-09-13T19:52:05.577Z,16.40
2018-09-13T19:54:07.731Z,16.30
2018-09-13T19:56:09.901Z,16.30
2018-09-13T19:58:12.063Z,16.20
2018-09-13T20:00:14.215Z,16.20
2018-09-13T20:02:16.356Z,16.10
2018-09-13T20:04:18.457Z,16.20
2018-09-13T20:06:20.833Z,16.20
2018-09-13T20:08:22.951Z,16.10
2018-09-13T20:10:25.178Z,16.00
2018-09-13T20:12:27.647Z,16.00
2018-09-13T20:14:29.806Z,15.90
2018-09-13T20:16:32.143Z,15.90
2018-09-13T20:18:34.304Z,15.90
2018-09-13T20:20:36.422Z,15.80
2018-09-13T20:22:38.633Z,15.80
2018-09-13T20:24:40.925Z,15.80
2018-09-13T20:26:43.162Z,15.80
2018-09-13T20:28:45.344Z,15.80
2018-09-13T20:30:47.433Z,15.80
2018-09-13T20:32:49.994Z,15.70
2018-09-13T20:34:52.341Z,15.70
2018-09-13T20:36:54.542Z,15.70
2018-09-13T20:38:56.984Z,15.60
2018-09-13T20:40:59.019Z,15.50
2018-09-13T20:43:01.157Z,15.60
2018-09-13T20:45:03.602Z,15.50
2018-09-13T20:47:05.718Z,15.40
2018-09-13T20:49:07.825Z,15.30
2018-09-13T20:51:10.325Z,15.30
2018-09-13T20:53:12.535Z,15.30
2018-09-13T20:55:14.669Z,15.30
2018-09-13T20:57:17.020Z,15.30
2018-09-13T20:59:19.074Z,15.30
2018-09-13T21:01:21.209Z,15.30
2018-09-13T21:03:23.415Z,15.20
2018-09-13T21:05:25.578Z,15.20
2018-09-13T21:07:27.709Z,15.10
2018-09-13T21:09:29.846Z,15.20
2018-09-13T21:11:32.332Z,15.10
2018-09-13T21:13:34.538Z,15.10
2018-09-13T21:15:36.702Z,15.10
2018-09-13T21:17:38.885Z,15.10
2018-09-13T21:19:41.035Z,15.20
2018-09-13T21:21:43.153Z,15.20
2018-09-13T21:23:45.486Z,15.00
2018-09-13T21:25:47.609Z,14.60
2018-09-13T21:27:49.729Z,14.40
2018-09-13T21:29:52.042Z,14.30
2018-09-13T21:31:54.301Z,14.20
2018-09-13T21:33:56.471Z,14.00
2018-09-13T21:35:58.652Z,13.90
2018-09-13T21:38:00.782Z,13.80
2018-09-13T21:40:02.922Z,13.60
2018-09-13T21:42:05.317Z,13.70
2018-09-13T21:44:07.450Z,13.80
2018-09-13T21:46:09.570Z,14.00
2018-09-13T21:48:11.696Z,13.90
2018-09-13T21:50:13.868Z,13.90
2018-09-13T21:52:15.978Z,13.70
2018-09-13T21:54:18.098Z,13.60
2018-09-13T21:56:20.251Z,13.80
2018-09-13T21:58:22.412Z,14.10
2018-09-13T22:00:24.554Z,14.00
2018-09-13T22:02:26.971Z,14.00
2018-09-13T22:04:29.112Z,13.80
2018-09-13T22:06:31.285Z,13.70
2018-09-13T22:08:33.454Z,13.50
2018-09-13T22:10:35.603Z,13.30
2018-09-13T22:12:37.770Z,13.40
2018-09-13T22:14:40.136Z,13.40
2018-09-13T22:16:42.366Z,13.40
2018-09-13T22:18:44.687Z,13.30
2018-09-13T22:20:46.886Z,13.30
2018-09-13T22:22:49.109Z,13.20
2018-09-13T22:24:51.267Z,13.20
2018-09-13T22:26:53.447Z,13.20
2018-09-13T22:28:55.677Z,13.10
2018-09-13T22:30:57.817Z,13.10
2018-09-13T22:33:00.046Z,13.20
2018-09-13T22:35:02.194Z,13.10
2018-09-13T22:37:04.402Z,13.20
2018-09-13T22:39:08.339Z,13.10
2018-09-13T22:41:10.503Z,12.90
2018-09-13T22:43:12.649Z,12.90
2018-09-13T22:45:14.762Z,12.90
2018-09-13T22:47:16.926Z,12.90
2018-09-13T22:49:19.107Z,12.80
2018-09-13T22:51:21.297Z,12.80
2018-09-13T22:53:23.504Z,12.80
2018-09-13T22:55:25.758Z,12.80
2018-09-13T22:57:27.903Z,12.90
2018-09-13T22:59:30.338Z,13.00
2018-09-13T23:01:32.534Z,13.10
2018-09-13T23:03:34.696Z,13.10
2018-09-13T23:05:36.862Z,13.00
2018-09-13T23:07:39.023Z,12.90
2018-09-13T23:09:41.178Z,12.90
2018-09-13T23:11:43.299Z,13.00
2018-09-13T23:13:45.439Z,12.90
2018-09-13T23:15:48.112Z,12.90
2018-09-13T23:17:50.244Z,12.90
2018-09-13T23:19:52.386Z,12.90
2018-09-13T23:21:54.555Z,12.80
2018-09-13T23:23:56.868Z,12.60
2018-09-13T23:25:59.037Z,12.60
2018-09-13T23:28:01.190Z,12.60
2018-09-13T23:30:03.623Z,12.60
2018-09-13T23:32:05.882Z,12.50
2018-09-13T23:34:08.092Z,12.50
2018-09-13T23:36:10.278Z,12.50
2018-09-13T23:38:12.498Z,12.50
2018-09-13T23:40:14.775Z,12.60
2018-09-13T23:42:16.837Z,12.50
2018-09-13T23:44:18.997Z,12.50
2018-09-13T23:46:21.158Z,12.40
2018-09-13T23:48:23.335Z,12.60
2018-09-13T23:50:25.499Z,12.70
2018-09-13T23:52:27.620Z,12.60
2018-09-13T23:54:29.926Z,12.50
2018-09-13T23:56:32.089Z,12.40
2018-09-13T23:58:34.268Z,12.40
